Time;durP1;ratioP1;P1;durP2;ratioP2;P2;SDS_P1;SDS_P2;PMS_P1;PMS_P2;Temp;Humidity;BMP_temperature;BMP_pressure;BME280_temperature;BME280_humidity;BME280_pressure;Samples;Min_cycle;Max_cycle;Signal;HPM_P1;HPM_P2
2022/04/17 00:00:06;;;;;;;8.37;4.57;;;;;;;7.45;47.38;102922.09;5012281;28;20096;-78
2022/04/17 00:02:31;;;;;;;7.50;4.30;;;;;;;7.44;47.33;102920.34;5012097;28;20026;-79
2022/04/17 00:04:57;;;;;;;6.50;3.90;;;;;;;7.44;47.42;102919.47;5011576;28;20033;-79
2022/04/17 00:07:22;;;;;;;8.20;4.43;;;;;;;7.42;47.03;102919.44;5012246;28;20042;-78
2022/04/17 00:09:47;;;;;;;5.65;3.40;;;;;;;7.39;47.54;102909.84;5012055;28;20022;-78
2022/04/17 00:12:12;;;;;;;5.37;3.47;;;;;;;7.36;47.87;102907.22;5012717;28;20022;-79
2022/04/17 00:14:38;;;;;;;6.78;3.90;;;;;;;7.32;47.89;102909.66;5015236;28;20437;-78
2022/04/17 00:17:03;;;;;;;5.95;3.90;;;;;;;7.31;47.50;102913.91;5015466;28;20046;-79
2022/04/17 00:19:29;;;;;;;7.93;4.03;;;;;;;7.26;47.58;102915.50;5014818;28;20386;-78
2022/04/17 00:21:55;;;;;;;6.63;3.93;;;;;;;7.24;47.86;102910.25;5015482;28;20030;-78
2022/04/17 00:24:20;;;;;;;5.53;3.70;;;;;;;7.23;47.44;102913.66;5015838;28;20021;-79
2022/04/17 00:26:45;;;;;;;5.93;3.60;;;;;;;7.22;47.42;102916.22;5014240;28;20474;-79
2022/04/17 00:29:10;;;;;;;6.20;3.63;;;;;;;7.19;47.70;102911.84;5015572;28;20034;-79
2022/04/17 00:31:35;;;;;;;5.75;3.42;;;;;;;7.19;47.41;102918.69;5014837;28;20033;-79
2022/04/17 00:34:01;;;;;;;6.78;3.80;;;;;;;7.15;47.27;102909.97;5015342;28;20494;-79
2022/04/17 00:36:26;;;;;;;6.38;3.60;;;;;;;7.16;47.36;102908.25;5015206;28;20044;-79
2022/04/17 00:38:51;;;;;;;5.77;3.90;;;;;;;7.13;47.15;102911.63;5014400;28;20041;-78
2022/04/17 00:41:17;;;;;;;6.50;3.92;;;;;;;7.11;47.22;102911.59;5015297;28;20437;-79
2022/04/17 00:43:47;;;;;;;6.72;3.92;;;;;;;7.09;47.25;102913.22;5014849;28;20025;-78
2022/04/17 00:46:13;;;;;;;7.18;4.03;;;;;;;7.04;47.46;102907.03;5014582;28;20113;-79
2022/04/17 00:48:39;;;;;;;7.23;3.93;;;;;;;7.01;47.27;102909.53;5015026;28;20049;-79
2022/04/17 00:51:05;;;;;;;6.00;3.80;;;;;;;6.97;47.24;102904.22;5015037;28;20025;-79
2022/04/17 00:53:30;;;;;;;6.90;4.07;;;;;;;6.92;47.01;102907.53;5014109;28;20029;-78
2022/04/17 00:55:57;;;;;;;7.20;3.90;;;;;;;6.89;46.66;102904.81;5014801;28;20030;-79
2022/04/17 00:58:23;;;;;;;7.35;4.45;;;;;;;6.87;47.13;102901.31;5014876;28;20022;-78
2022/04/17 01:00:49;;;;;;;7.10;3.95;;;;;;;6.86;47.02;102909.00;5013843;28;20125;-79
2022/04/17 01:03:15;;;;;;;7.28;4.07;;;;;;;6.78;47.36;102896.75;5015061;28;20129;-79
2022/04/17 01:05:43;;;;;;;7.82;4.72;;;;;;;6.71;47.63;102909.38;5014664;28;20048;-79
2022/04/17 01:08:10;;;;;;;8.95;4.97;;;;;;;6.68;47.99;102898.94;5014216;28;20033;-79
2022/04/17 01:10:35;;;;;;;8.52;4.57;;;;;;;6.67;47.90;102897.19;5014897;28;20033;-79
2022/04/17 01:13:10;;;;;;;7.13;4.07;;;;;;;6.64;47.87;102903.13;5014159;28;20026;-79
2022/04/17 01:15:36;;;;;;;6.00;3.70;;;;;;;6.61;47.94;102895.28;5013545;28;20368;-79
2022/04/17 01:18:03;;;;;;;6.90;3.60;;;;;;;6.59;48.00;102899.50;5014382;28;20532;-79
2022/04/17 01:20:28;;;;;;;4.53;3.05;;;;;;;6.57;48.07;102898.59;5014610;28;20164;-79
2022/04/17 01:28:23;;;;;;;8.75;4.50;;;;;;;6.38;49.29;102897.94;5013931;28;20125;-79
2022/04/17 01:30:52;;;;;;;6.72;4.10;;;;;;;6.31;48.91;102902.00;5013863;28;20112;-78
2022/04/17 01:33:18;;;;;;;8.10;4.60;;;;;;;6.25;48.68;102906.94;5014330;28;20030;-79
2022/04/17 01:35:43;;;;;;;7.53;4.00;;;;;;;6.23;49.07;102908.59;5013374;28;20068;-79
2022/04/17 01:38:08;;;;;;;8.07;4.18;;;;;;;6.22;49.03;102908.53;5014333;28;20502;-78
2022/04/17 01:40:33;;;;;;;6.20;3.90;;;;;;;6.20;49.46;102910.19;5014370;28;20121;-78
2022/04/17 01:42:58;;;;;;;6.10;3.80;;;;;;;6.17;49.34;102908.38;5013277;28;20041;-78
2022/04/17 01:45:24;;;;;;;5.93;3.50;;;;;;;6.15;49.29;102902.28;5014206;28;20034;-79
2022/04/17 01:47:49;;;;;;;5.07;3.20;;;;;;;6.13;49.53;102911.66;5013550;28;20030;-79
2022/04/17 01:50:14;;;;;;;6.15;3.40;;;;;;;6.07;49.79;102909.72;5013333;28;20033;-79
2022/04/17 01:52:40;;;;;;;4.97;3.10;;;;;;;6.00;49.50;102905.19;5013581;28;20037;-78
2022/04/17 01:55:05;;;;;;;4.75;3.42;;;;;;;5.96;49.48;102901.59;5014070;28;20478;-79
2022/04/17 01:57:30;;;;;;;4.43;3.17;;;;;;;5.92;49.88;102907.44;5013258;28;20061;-79
2022/04/17 01:59:56;;;;;;;5.38;3.38;;;;;;;5.90;50.03;102905.63;5013863;28;20060;-79
2022/04/17 02:02:21;;;;;;;5.82;3.70;;;;;;;5.85;50.15;102897.75;5013620;28;20064;-78
2022/04/17 02:04:46;;;;;;;5.27;3.27;;;;;;;5.81;50.05;102901.88;5012955;28;20030;-79
2022/04/17 02:07:11;;;;;;;4.78;3.30;;;;;;;5.74;50.81;102893.88;5013686;28;20466;-79
2022/04/17 02:09:44;;;;;;;4.47;3.00;;;;;;;5.67;50.78;102897.91;5013740;28;20022;-79
2022/04/17 02:12:09;;;;;;;5.25;3.30;;;;;;;5.63;50.64;102898.59;5012990;28;20040;-79
2022/04/17 02:14:34;;;;;;;4.18;3.10;;;;;;;5.57;50.94;102902.69;5013612;28;20389;-78
2022/04/17 02:17:02;;;;;;;5.00;3.10;;;;;;;5.53;51.45;102889.63;5012277;28;20050;-78
2022/04/17 02:19:27;;;;;;;4.60;3.10;;;;;;;5.49;50.65;102892.94;4993891;28;20108;-79
2022/04/17 02:21:56;;;;;;;4.25;3.00;;;;;;;5.43;51.29;102884.94;4993329;28;20483;-78
2022/04/17 02:24:21;;;;;;;5.40;3.20;;;;;;;5.38;51.34;102884.78;4993241;28;20072;-78
2022/04/17 02:26:46;;;;;;;4.80;3.40;;;;;;;5.33;51.09;102894.91;4993521;28;20422;-78
2022/04/17 02:29:12;;;;;;;5.70;3.30;;;;;;;5.32;51.40;102900.00;4993709;28;20023;-79
2022/04/17 02:31:37;;;;;;;5.55;3.45;;;;;;;5.25;51.45;102888.56;4992971;28;20038;-78
2022/04/17 02:34:02;;;;;;;5.47;3.50;;;;;;;5.19;53.37;102888.31;4993353;28;20030;-78
2022/04/17 02:36:28;;;;;;;6.07;3.60;;;;;;;5.11;53.60;102885.44;4992992;28;20092;-78
2022/04/17 02:38:53;;;;;;;5.85;3.60;;;;;;;5.06;52.25;102882.69;4993893;28;20459;-78
2022/04/17 02:41:19;;;;;;;6.47;3.80;;;;;;;5.03;52.12;102884.25;5013211;28;20030;-79
2022/04/17 02:43:46;;;;;;;5.88;3.45;;;;;;;5.00;53.26;102887.56;5012791;28;20030;-79
2022/04/17 02:46:12;;;;;;;5.45;3.55;;;;;;;4.94;54.26;102883.06;5012230;28;20406;-78
2022/04/17 02:48:37;;;;;;;4.78;3.22;;;;;;;4.88;53.12;102880.25;5012943;28;20018;-79
2022/04/17 02:51:03;;;;;;;4.90;3.08;;;;;;;4.87;53.28;102882.75;5013139;28;20022;-78
2022/04/17 02:53:30;;;;;;;3.85;2.75;;;;;;;4.84;53.21;102886.06;5012536;28;20462;-78
2022/04/17 02:55:55;;;;;;;;;;;;;;;4.83;53.73;102884.31;5012769;28;20018;-78
2022/04/17 02:58:20;;;;;;;4.53;2.73;;;;;;;4.83;53.52;102883.44;5013168;28;19963;-78
2022/04/17 03:06:14;;;;;;;5.50;3.30;;;;;;;4.69;54.06;102876.03;5012259;28;20044;-78
2022/04/17 03:08:41;;;;;;;5.40;3.10;;;;;;;4.66;53.64;102870.75;5012704;28;20034;-78
2022/04/17 03:11:06;;;;;;;5.22;3.15;;;;;;;4.62;54.38;102874.00;5012720;28;20015;-78
2022/04/17 03:13:32;;;;;;;3.72;2.70;;;;;;;4.59;53.85;102864.47;5012232;28;20029;-78
2022/04/17 03:15:57;;;;;;;5.85;3.67;;;;;;;4.53;56.24;102865.91;5012361;28;20422;-78
2022/04/17 03:18:22;;;;;;;5.28;3.60;;;;;;;4.48;54.72;102855.41;5013046;28;20384;-78
2022/04/17 03:20:48;;;;;;;5.32;3.58;;;;;;;4.44;56.41;102863.84;5012020;28;20029;-78
2022/04/17 03:23:14;;;;;;;6.50;3.90;;;;;;;4.40;55.56;102854.22;5012824;28;20459;-79
2022/04/17 03:25:39;;;;;;;6.90;3.50;;;;;;;4.41;54.57;102855.97;5012561;28;20046;-79
2022/04/17 03:28:05;;;;;;;6.13;3.50;;;;;;;4.42;54.47;102858.59;5011733;28;20041;-78
2022/04/17 03:30:30;;;;;;;5.13;3.28;;;;;;;4.44;54.41;102856.13;5012648;28;20100;-78
2022/04/17 03:32:57;;;;;;;4.07;2.90;;;;;;;4.46;54.20;102860.50;5012504;28;20034;-78
2022/04/17 03:35:22;;;;;;;4.53;2.85;;;;;;;4.46;54.18;102850.22;5011589;28;20053;-78
2022/04/17 03:37:48;;;;;;;4.75;3.00;;;;;;;4.47;54.75;102858.81;5012475;28;20498;-79
2022/04/17 03:40:15;;;;;;;5.90;3.47;;;;;;;4.45;54.11;102858.75;5011800;28;20505;-78
2022/04/17 03:42:41;;;;;;;5.00;3.20;;;;;;;4.46;55.40;102849.31;5011200;28;20390;-79
2022/04/17 03:45:11;;;;;;;3.58;3.03;;;;;;;4.44;54.83;102846.69;5012536;28;20034;-78
2022/04/17 03:47:37;;;;;;;4.47;3.00;;;;;;;4.46;55.22;102857.03;5015995;28;20367;-78
2022/04/17 03:50:06;;;;;;;3.97;2.90;;;;;;;4.44;54.35;102840.69;5015724;28;20057;-78
2022/04/17 03:52:39;;;;;;;4.60;2.83;;;;;;;4.43;54.22;102844.94;5016332;28;20106;-79
2022/04/17 03:55:05;;;;;;;4.28;2.80;;;;;;;4.43;54.50;102851.78;5016084;28;20026;-78
2022/04/17 03:57:31;;;;;;;4.67;2.83;;;;;;;4.39;54.86;102852.47;5015458;28;20458;-78
2022/04/17 03:59:57;;;;;;;6.57;3.53;;;;;;;4.33;55.89;102853.06;5015697;28;20273;-78
2022/04/17 04:02:22;;;;;;;3.63;2.92;;;;;;;4.31;54.77;102854.69;5016232;28;20077;-78
2022/04/17 04:04:47;;;;;;;4.38;2.95;;;;;;;4.26;56.13;102845.94;5014731;28;20053;-78
2022/04/17 04:07:12;;;;;;;5.95;3.30;;;;;;;4.22;54.77;102841.44;5016023;28;20030;-78
2022/04/17 04:09:38;;;;;;;5.90;3.42;;;;;;;4.18;55.78;102836.16;5014950;28;20434;-79
2022/04/17 04:12:05;;;;;;;5.15;3.50;;;;;;;4.13;56.02;102840.25;5015641;28;20025;-79
2022/04/17 04:14:30;;;;;;;;;;;;;;;4.13;54.92;102839.34;5016081;28;20536;-78
2022/04/17 04:16:55;;;;;;;5.10;3.60;;;;;;;4.10;54.53;102837.53;5014503;28;19925;-79
2022/04/17 04:19:20;;;;;;;5.50;3.28;;;;;;;4.09;55.00;102837.50;5016048;28;20060;-79
2022/04/17 04:21:48;;;;;;;5.05;3.10;;;;;;;4.06;56.56;102829.63;5015369;28;20034;-79
2022/04/17 04:24:15;;;;;;;5.10;3.20;;;;;;;4.03;55.42;102825.25;5014006;28;20065;-79
2022/04/17 04:26:42;;;;;;;4.13;3.05;;;;;;;4.03;54.87;102825.25;5014842;28;20029;-78
2022/04/17 04:29:07;;;;;;;5.07;3.13;;;;;;;4.01;54.87;102812.31;5015747;28;20108;-79
2022/04/17 04:31:33;;;;;;;4.57;3.00;;;;;;;3.98;56.93;102819.00;5015022;28;20121;-79
2022/04/17 04:33:58;;;;;;;5.43;3.30;;;;;;;3.93;56.27;102816.25;5015231;28;20080;-78
2022/04/17 04:36:26;;;;;;;5.60;3.17;;;;;;;3.92;56.42;102814.47;5015420;28;20462;-78
2022/04/17 04:38:51;;;;;;;4.20;2.92;;;;;;;3.89;55.75;102818.63;5014227;28;20555;-79
2022/04/17 04:41:16;;;;;;;4.55;2.80;;;;;;;3.90;55.53;102821.25;5015225;28;20026;-79
2022/04/17 04:43:42;;;;;;;3.45;2.60;;;;;;;3.88;55.72;102822.88;5015154;28;20026;-78
2022/04/17 04:46:07;;;;;;;3.00;2.60;;;;;;;3.89;55.99;102818.63;5014475;28;20096;-78
2022/04/17 04:51:26;;;;;;;2.67;2.40;;;;;;;3.90;55.36;102821.25;5015369;28;20048;-79
2022/04/17 04:53:51;;;;;;;;;;;;;;;3.85;57.78;102810.75;5014303;28;20060;-78
2022/04/17 04:56:17;;;;;;;7.03;3.70;;;;;;;3.81;56.68;102818.28;5015121;28;20350;-79
2022/04/17 04:58:44;;;;;;;6.55;3.67;;;;;;;3.81;55.92;102813.13;5013788;28;20049;-78
2022/04/17 05:01:09;;;;;;;4.93;3.33;;;;;;;3.80;56.40;102813.94;5015073;28;20033;-78
2022/04/17 05:03:35;;;;;;;4.50;3.03;;;;;;;3.80;57.27;102813.94;5014877;28;20032;-78
2022/04/17 05:06:01;;;;;;;5.68;3.35;;;;;;;3.78;56.50;102813.00;5013631;28;20470;-78
2022/04/17 05:08:26;;;;;;;4.78;2.92;;;;;;;3.77;56.70;102816.41;5014682;28;20061;-78
2022/04/17 05:10:52;;;;;;;4.32;2.83;;;;;;;3.76;56.33;102812.94;5014586;28;20083;-78
2022/04/17 05:13:17;;;;;;;4.53;2.83;;;;;;;3.78;55.96;102818.13;5014190;28;20029;-78
2022/04/17 05:15:43;;;;;;;3.67;2.80;;;;;;;3.79;57.36;102813.06;5013933;28;20438;-78
2022/04/17 05:18:08;;;;;;;4.40;3.00;;;;;;;3.78;56.72;102821.59;5014553;28;20061;-78
2022/04/17 05:20:33;;;;;;;4.57;3.17;;;;;;;3.81;56.71;102829.44;5013964;28;20026;-78
2022/04/17 05:23:15;;;;;;;6.25;3.80;;;;;;;3.80;58.87;102826.78;5013894;28;20476;-78
2022/04/17 05:25:40;;;;;;;8.55;4.80;;;;;;;3.78;58.91;102828.41;5014480;28;20029;-78
2022/04/17 05:28:06;;;;;;;9.52;4.90;;;;;;;3.77;58.72;102826.66;5013862;28;20562;-78
2022/04/17 05:30:31;;;;;;;9.27;5.07;;;;;;;3.80;59.02;102826.78;5014578;28;20478;-79
2022/04/17 05:32:57;;;;;;;6.93;4.47;;;;;;;3.83;57.66;102820.09;5013772;28;20042;-78
2022/04/17 05:35:22;;;;;;;7.53;4.38;;;;;;;3.85;57.43;102822.75;5013510;28;20089;-79
2022/04/17 05:37:47;;;;;;;7.60;4.32;;;;;;;3.85;58.21;102823.59;5013838;28;20037;-79
2022/04/17 05:40:12;;;;;;;6.20;3.80;;;;;;;3.89;58.57;102822.03;5014296;28;20030;-78
2022/04/17 05:42:38;;;;;;;8.77;4.80;;;;;;;3.91;58.52;102829.84;5012781;28;20033;-78
2022/04/17 05:45:03;;;;;;;9.27;4.90;;;;;;;3.93;57.33;102823.09;5014092;28;20038;-78
2022/04/17 05:47:29;;;;;;;8.95;5.00;;;;;;;3.94;58.72;102820.56;5013855;28;20434;-78
2022/04/17 05:49:55;;;;;;;6.82;4.43;;;;;;;3.97;58.31;102815.59;5012909;28;20026;-78
2022/04/17 05:52:20;;;;;;;7.43;4.30;;;;;;;4.06;57.26;102827.06;5013432;28;20136;-79
2022/04/17 05:54:45;;;;;;;8.30;4.40;;;;;;;4.10;57.82;102818.69;5013721;28;20371;-78
2022/04/17 05:57:10;;;;;;;6.53;4.10;;;;;;;4.15;57.64;102820.66;5013128;28;20034;-78
2022/04/17 05:59:36;;;;;;;6.40;3.70;;;;;;;4.20;57.29;102810.56;5013896;28;20021;-78
2022/04/17 06:02:03;;;;;;;4.82;3.40;;;;;;;4.24;57.16;102825.28;5012780;28;20390;-78
2022/04/17 06:04:28;;;;;;;4.75;3.20;;;;;;;4.28;57.60;102816.91;5013852;28;20030;-78
2022/04/17 06:06:53;;;;;;;4.45;3.17;;;;;;;4.33;58.15;102822.22;5013489;28;20160;-79
2022/04/17 06:09:18;;;;;;;5.38;3.85;;;;;;;4.38;56.84;102828.47;5012221;28;20378;-79
2022/04/17 06:11:44;;;;;;;5.28;3.70;;;;;;;4.44;57.68;102822.69;5013534;28;20087;-79
2022/04/17 06:14:09;;;;;;;3.72;3.05;;;;;;;4.52;56.63;102826.47;5013747;28;20026;-79
2022/04/17 06:16:34;;;;;;;7.45;4.05;;;;;;;4.56;57.83;102825.75;5012703;28;20401;-79
2022/04/17 06:18:59;;;;;;;6.28;3.95;;;;;;;4.61;58.48;102826.84;5012879;28;20026;-79
2022/04/17 06:21:25;;;;;;;7.25;4.40;;;;;;;4.71;57.20;102822.06;5013583;28;20040;-78
2022/04/17 06:23:50;;;;;;;7.00;4.15;;;;;;;4.80;57.28;102822.44;5012474;28;20030;-78
2022/04/17 06:26:15;;;;;;;7.47;4.20;;;;;;;4.87;57.60;102815.84;5013241;28;20110;-79
2022/04/17 06:28:41;;;;;;;6.55;3.90;;;;;;;4.93;58.09;102809.25;5012984;28;20061;-78
2022/04/17 06:31:07;;;;;;;7.45;4.30;;;;;;;5.04;57.31;102812.25;5012530;28;20026;-79
2022/04/17 06:33:33;;;;;;;7.30;4.38;;;;;;;5.11;57.61;102810.81;5012908;28;20026;-79
2022/04/17 06:35:58;;;;;;;9.88;5.40;;;;;;;5.43;55.88;102818.00;5012935;28;20485;-79
2022/04/17 06:38:23;;;;;;;9.27;5.00;;;;;;;5.31;57.18;102818.41;5012642;28;20058;-79
2022/04/17 06:40:48;;;;;;;8.35;4.95;;;;;;;5.50;55.21;102807.97;5013004;28;20037;-80
2022/04/17 06:43:14;;;;;;;7.75;4.68;;;;;;;5.51;57.00;102811.47;5013203;28;20029;-80
2022/04/17 06:45:40;;;;;;;7.47;4.80;;;;;;;5.65;56.66;102812.81;5012226;28;20057;-77
2022/04/17 06:48:22;;;;;;;8.93;5.10;;;;;;;5.79;56.50;102804.72;5012582;28;20041;-77
2022/04/17 06:50:49;;;;;;;9.45;4.82;;;;;;;5.91;56.10;102806.88;5012991;28;20285;-77
2022/04/17 06:53:15;;;;;;;6.22;4.13;;;;;;;6.03;56.74;102808.22;5012384;28;20030;-77
2022/04/17 06:55:48;;;;;;;7.32;4.30;;;;;;;6.17;55.14;102802.66;5012876;28;20073;-77
2022/04/17 06:58:14;;;;;;;8.38;4.15;;;;;;;6.38;54.61;102806.81;5012910;28;20022;-77
2022/04/17 07:00:40;;;;;;;9.33;4.77;;;;;;;6.37;55.46;102805.03;5011994;28;20032;-77
2022/04/17 07:03:05;;;;;;;9.10;4.80;;;;;;;6.54;54.77;102803.03;5013065;28;20018;-77
2022/04/17 07:05:31;;;;;;;7.93;4.57;;;;;;;6.63;55.53;102806.81;5012218;28;20033;-77
2022/04/17 07:07:58;;;;;;;7.25;4.20;;;;;;;6.80;55.08;102807.34;5012585;28;20084;-77
2022/04/17 07:10:24;;;;;;;6.03;4.07;;;;;;;7.65;55.09;102806.41;5012890;28;20478;-77
2022/04/17 07:12:51;;;;;;;8.32;4.45;;;;;;;10.35;49.03;102799.56;5011865;28;20022;-77
2022/04/17 07:15:17;;;;;;;5.85;3.75;;;;;;;13.17;42.50;102800.16;5012073;28;20050;-78
2022/04/17 07:17:42;;;;;;;6.50;3.90;;;;;;;14.68;39.79;102793.56;5012465;28;20052;-78
2022/04/17 07:20:09;;;;;;;5.87;4.07;;;;;;;15.66;39.30;102788.84;5012181;28;20030;-77
2022/04/17 07:22:36;;;;;;;5.72;3.55;;;;;;;15.74;38.94;102791.44;5016559;28;20017;-77
2022/04/17 07:25:03;;;;;;;7.57;3.97;;;;;;;14.82;38.35;102786.53;5016805;28;20049;-79
2022/04/17 07:27:45;;;;;;;6.35;4.22;;;;;;;13.65;39.22;102779.50;5015641;28;20041;-79
2022/04/17 07:30:35;;;;;;;5.68;3.80;;;;;;;12.44;42.11;102783.19;5016664;28;20120;-79
2022/04/17 07:33:01;;;;;;;6.40;4.28;;;;;;;11.53;43.10;102777.91;5016250;28;20109;-81
2022/04/17 07:35:28;;;;;;;7.30;3.67;;;;;;;10.90;44.35;102781.44;5015964;28;20097;-80
2022/04/17 07:37:56;;;;;;;7.47;4.00;;;;;;;10.46;45.51;102776.44;5015832;28;20053;-80
2022/04/17 07:40:25;;;;;;;6.38;3.80;;;;;;;10.17;46.82;102781.94;5016313;28;20026;-79
2022/04/17 07:42:52;;;;;;;6.78;4.10;;;;;;;9.98;47.12;102772.97;5015568;28;20033;-80
2022/04/17 07:45:19;;;;;;;5.40;3.70;;;;;;;9.78;46.23;102770.03;5016304;28;20084;-83
2022/04/17 07:47:45;;;;;;;7.32;3.80;;;;;;;9.73;46.18;102775.97;5015135;28;20425;-80
2022/04/17 07:50:13;;;;;;;5.63;3.67;;;;;;;9.71;47.73;102769.88;5016376;28;20022;-80
2022/04/17 07:52:40;;;;;;;5.28;3.42;;;;;;;9.69;46.95;102768.97;5016207;28;20067;-80
2022/04/17 07:55:09;;;;;;;;;;;;;;;9.74;48.23;102762.19;5015800;28;20041;-80
2022/04/17 08:00:21;;;;;;;5.25;3.60;;;;;;;9.91;47.82;102759.00;5016681;28;20103;-80
2022/04/17 08:03:08;;;;;;;5.03;3.50;;;;;;;10.03;47.10;102766.16;5015013;28;20061;-80
2022/04/17 08:05:40;;;;;;;5.20;3.70;;;;;;;10.18;47.38;102763.84;5015859;28;20406;-80
2022/04/17 08:08:10;;;;;;;4.40;3.50;;;;;;;10.19;47.12;102765.56;5015740;28;20042;-80
2022/04/17 08:10:37;;;;;;;5.70;3.60;;;;;;;10.34;46.66;102759.78;5015412;28;20451;-80
2022/04/17 08:13:02;;;;;;;5.50;3.88;;;;;;;10.42;46.51;102756.47;5015861;28;20026;-80
2022/04/17 08:15:28;;;;;;;5.73;3.80;;;;;;;10.50;45.49;102749.66;5015570;28;20077;-80
2022/04/17 08:17:53;;;;;;;5.50;3.83;;;;;;;10.78;46.03;102756.13;5014651;28;20026;-80
2022/04/17 08:20:19;;;;;;;5.03;3.37;;;;;;;10.71;46.49;102758.63;5015595;28;20038;-80
2022/04/17 08:22:44;;;;;;;4.50;3.10;;;;;;;10.81;46.16;102755.31;5014777;28;20378;-81
2022/04/17 08:25:13;;;;;;;5.23;3.23;;;;;;;10.97;45.75;102757.28;5015866;28;20104;-82
2022/04/17 08:27:49;;;;;;;5.82;3.58;;;;;;;11.14;45.46;102756.66;5015168;28;20125;-82
2022/04/17 08:30:22;;;;;;;7.53;3.78;;;;;;;11.27;44.47;102755.06;5014705;28;20034;-82
2022/04/17 08:32:48;;;;;;;5.53;3.53;;;;;;;11.33;43.90;102762.06;5013531;28;20425;-82
2022/04/17 08:35:14;;;;;;;5.77;3.57;;;;;;;11.44;44.21;102755.28;5014787;28;20044;-82
2022/04/17 08:37:39;;;;;;;7.45;3.70;;;;;;;11.69;43.16;102748.59;5013735;28;20112;-82
2022/04/17 08:40:05;;;;;;;4.00;3.07;;;;;;;11.69;43.96;102747.75;5014850;28;20105;-83
2022/04/17 08:42:31;;;;;;;4.00;3.00;;;;;;;11.83;40.52;102746.13;5015185;28;20486;-82
2022/04/17 08:44:57;;;;;;;3.78;3.25;;;;;;;11.95;43.20;102748.00;5013806;28;20428;-82
2022/04/17 08:47:22;;;;;;;5.50;3.40;;;;;;;12.07;41.64;102749.00;5015171;28;20117;-82
2022/04/17 08:49:48;;;;;;;5.77;3.63;;;;;;;12.16;42.11;102749.94;5014936;28;20029;-82
2022/04/17 08:52:15;;;;;;;4.13;3.20;;;;;;;12.30;43.39;102744.88;5014543;28;20489;-82
2022/04/17 08:54:43;;;;;;;4.93;3.30;;;;;;;12.48;42.23;102745.88;5014686;28;20033;-82
2022/04/17 08:57:09;;;;;;;5.90;3.30;;;;;;;12.63;39.72;102750.31;5015006;28;20029;-83
2022/04/17 08:59:34;;;;;;;5.03;3.40;;;;;;;12.71;41.46;102738.22;5013862;28;20036;-82
2022/04/17 09:02:08;;;;;;;6.50;3.30;;;;;;;12.82;41.81;102736.56;5014117;28;20018;-82
2022/04/17 09:04:33;;;;;;;3.88;2.80;;;;;;;12.98;42.45;102744.44;5014539;28;20026;-83
2022/04/17 09:07:10;;;;;;;3.93;3.07;;;;;;;13.16;41.13;102737.56;5013622;28;20033;-82
2022/04/17 09:09:41;;;;;;;4.72;3.42;;;;;;;13.29;40.59;102729.81;5014652;28;20021;-82
2022/04/17 09:12:07;;;;;;;4.68;3.20;;;;;;;13.37;40.84;102728.94;5013740;28;20030;-82
2022/04/17 09:14:38;;;;;;;6.07;3.30;;;;;;;13.52;38.17;102726.44;5014460;28;20029;-82
2022/04/17 09:17:09;;;;;;;4.60;3.15;;;;;;;13.63;39.85;102729.03;5014451;28;20042;-82
2022/04/17 09:19:35;;;;;;;3.38;3.03;;;;;;;13.69;38.77;102723.84;5013969;28;20048;-82
2022/04/17 09:22:01;;;;;;;5.60;3.50;;;;;;;13.82;38.45;102724.72;5014268;28;20466;-82
2022/04/17 09:24:26;;;;;;;4.70;3.42;;;;;;;13.89;38.48;102721.28;5014429;28;20033;-82
2022/04/17 09:26:57;;;;;;;6.90;3.40;;;;;;;14.02;37.90;102727.38;5013202;28;20030;-82
2022/04/17 09:29:24;;;;;;;5.45;3.53;;;;;;;14.05;38.75;102722.16;5014139;28;20034;-81
2022/04/17 09:32:04;;;;;;;4.80;3.30;;;;;;;14.06;37.33;102715.19;5013909;28;20034;-82
2022/04/17 09:34:52;;;;;;;5.18;3.45;;;;;;;14.16;38.75;102710.84;5013835;28;20096;-82
2022/04/17 09:37:25;;;;;;;4.35;3.10;;;;;;;14.29;38.45;102706.47;5014308;28;20445;-82
2022/04/17 09:39:52;;;;;;;5.22;3.10;;;;;;;14.42;36.20;102699.47;5013050;28;20069;-83
2022/04/17 09:42:25;;;;;;;5.07;3.50;;;;;;;14.43;37.30;102703.81;5013155;28;20132;-84
2022/04/17 09:44:54;;;;;;;5.43;3.25;;;;;;;14.47;38.39;102700.34;5013272;28;20041;-79
2022/04/17 09:47:25;;;;;;;5.43;3.22;;;;;;;14.66;37.51;102704.66;5013009;28;20040;-79
2022/04/17 09:50:04;;;;;;;5.75;3.42;;;;;;;14.71;36.54;102694.22;5013475;28;20026;-81
2022/04/17 09:52:32;;;;;;;5.15;3.35;;;;;;;14.80;36.30;102691.59;5014031;28;20117;-79
2022/04/17 09:54:59;;;;;;;4.88;3.15;;;;;;;14.90;37.04;102683.72;5012679;28;20498;-78
2022/04/17 09:57:28;;;;;;;;;;;;;;;14.96;35.48;102683.69;5014016;28;20030;-81
2022/04/17 09:59:55;;;;;;;5.18;3.20;;;;;;;15.03;34.83;102679.28;4993984;28;20258;-82
2022/04/17 10:02:23;;;;;;;5.25;3.33;;;;;;;15.03;34.19;102676.69;4993428;28;20118;-82
2022/04/17 10:04:49;;;;;;;4.82;3.00;;;;;;;15.13;35.74;102670.53;4993740;28;20080;-81
2022/04/17 10:07:18;;;;;;;5.15;3.10;;;;;;;15.19;35.25;102662.66;4993669;28;20034;-80
2022/04/17 10:09:46;;;;;;;3.47;2.80;;;;;;;15.35;35.30;102655.59;4992904;28;20471;-81
2022/04/17 10:12:14;;;;;;;5.68;3.20;;;;;;;15.39;35.33;102649.44;4993698;28;20061;-81
2022/04/17 10:14:40;;;;;;;4.80;2.90;;;;;;;15.53;35.84;102646.75;4993304;28;20030;-80
2022/04/17 10:17:07;;;;;;;5.45;3.15;;;;;;;15.62;35.42;102651.03;4993876;28;20034;-80
2022/04/17 10:19:34;;;;;;;;;;;;;;;15.77;34.92;102646.56;5013972;28;20033;-80
2022/04/17 10:22:03;;;;;;;4.40;3.40;;;;;;;15.73;33.43;102636.09;5013030;28;20297;-80
2022/04/17 10:24:28;;;;;;;5.00;3.08;;;;;;;15.72;33.10;102633.50;5012461;28;20079;-81
2022/04/17 10:26:54;;;;;;;5.53;2.87;;;;;;;15.86;33.66;102629.06;5012608;28;20038;-80
2022/04/17 10:29:32;;;;;;;3.97;2.70;;;;;;;16.02;34.04;102621.94;5012437;28;20041;-80
2022/04/17 10:32:28;;;;;;;3.05;2.50;;;;;;;16.24;34.86;102618.19;5012627;28;20025;-80
2022/04/17 10:35:29;;;;;;;4.53;2.80;;;;;;;16.18;31.72;102621.75;5003783;28;20074;-80
2022/04/17 10:38:07;;;;;;;4.13;2.80;;;;;;;16.23;33.00;102604.25;5012110;28;20034;-81
2022/04/17 10:40:33;;;;;;;4.88;2.63;;;;;;;16.41;33.14;102603.19;5013051;28;20057;-81
2022/04/17 10:43:02;;;;;;;2.50;2.30;;;;;;;16.65;33.91;102601.16;5012965;28;20032;-80
2022/04/17 10:45:31;;;;;;;3.50;2.90;;;;;;;16.80;31.38;102592.22;5012322;28;20428;-81
2022/04/17 10:48:09;;;;;;;4.70;2.83;;;;;;;16.93;32.84;102593.78;5012341;28;20033;-77
2022/04/17 10:50:50;;;;;;;3.03;2.42;;;;;;;17.08;33.29;102594.44;5012335;28;20030;-81
2022/04/17 10:53:26;;;;;;;3.50;2.63;;;;;;;17.20;34.14;102581.16;5013042;28;20076;-81
2022/04/17 10:56:02;;;;;;;5.05;2.80;;;;;;;17.30;31.79;102576.66;4993713;28;20026;-81
2022/04/17 10:58:40;;;;;;;3.20;2.50;;;;;;;17.28;32.14;102574.03;5011489;28;20042;-81
2022/04/17 11:01:05;;;;;;;3.13;2.80;;;;;;;17.45;31.97;102584.25;5002953;28;20064;-81
2022/04/17 11:03:34;;;;;;;3.87;2.67;;;;;;;17.65;29.54;102569.06;5012552;28;20050;-82
2022/04/17 11:06:30;;;;;;;7.35;3.00;;;;;;;17.59;30.72;102562.16;5011366;28;20111;-81
2022/04/17 11:09:10;;;;;;;4.22;2.90;;;;;;;17.50;30.17;102563.19;5012262;28;20032;-82
2022/04/17 11:11:36;;;;;;;3.67;2.40;;;;;;;17.62;30.09;102551.59;5011803;28;20026;-81
2022/04/17 11:14:09;;;;;;;;;;;;;;;17.27;28.82;102550.44;5012701;28;20056;-81
2022/04/17 11:17:11;;;;;;;4.25;3.00;;;;;;;17.29;28.19;102553.91;5012311;28;20380;-81
2022/04/17 11:19:38;;;;;;;4.90;2.80;;;;;;;17.40;29.38;102556.34;4970672;28;20104;-80
2022/04/17 11:22:08;;;;;;;4.95;2.78;;;;;;;17.55;28.43;102555.25;5012633;28;20026;-81
2022/04/17 11:25:02;;;;;;;5.30;2.70;;;;;;;17.79;27.72;102537.31;5012353;28;20474;-83
2022/04/17 11:27:46;;;;;;;3.65;2.53;;;;;;;17.93;29.53;102532.66;5011986;28;20042;-83
2022/04/17 11:30:14;;;;;;;4.63;2.92;;;;;;;18.20;30.19;102540.91;5012830;28;20030;-80
2022/04/17 11:32:39;;;;;;;5.35;2.65;;;;;;;18.38;30.17;102518.66;5011642;28;20034;-81
2022/04/17 11:35:09;;;;;;;4.60;3.10;;;;;;;18.19;26.62;102529.53;5012536;28;20109;-83
2022/04/17 11:37:36;;;;;;;4.65;2.70;;;;;;;18.18;30.14;102527.78;5012515;28;20482;-82
2022/04/17 11:40:16;;;;;;;3.75;2.92;;;;;;;18.15;26.18;102521.75;5011136;28;20084;-82
2022/04/17 11:42:46;;;;;;;3.83;2.80;;;;;;;18.21;28.45;102519.84;5011871;28;20034;-83
2022/04/17 11:45:17;;;;;;;3.95;2.92;;;;;;;18.50;26.73;102509.63;5012240;28;20121;-83
2022/04/17 11:47:44;;;;;;;4.43;3.10;;;;;;;18.43;25.49;102510.66;5011549;28;20037;-83
2022/04/17 11:50:12;;;;;;;4.35;3.05;;;;;;;18.30;26.21;102504.78;5012636;28;20057;-88